Portada
METAR-TAF:

METAR-TAF

Aeroports :

Abakan, Rússia

latitud: 53-45N, longitud: 091-24E, altitud: 245 m

Observació

L'informe es va fer fa 29 minuts, a les 00:00 UTC
Vent 2 kt del Oest/Sud-Oest
Temperatura 14°C
Humitat 82%
Pressió 1008 hPa
Visibilitat 10 km o més
sense núvols per sota de 1500 mi sense presència de cumulonimbus.

METAR: UNAA 040000Z 24001MPS CAVOK 14/11 Q1008 R02/CLRD65 NOSIG RMK QFE734

Hora: 07:29 (00:29 UTC)

Pronòstic

L'informe es va fer fa 1 hora i 31 minuts, a les 22:58 UTC
Pronòstic vàlid del 04 a les 00 UTC al 04 a les 24 UTC
Vent 6 kt del Est
Visibilitat 10 km o més
Núvols disperses a una alçada de 2500 ft
Temporalment
l' 04 a les 00 UTC al 04 a les 03 UTC
Visibilitat: 0300 m
boira

TAF: UNAA 032258Z 0400/0424 10003MPS 9999 SCT025 TEMPO 0400/0403 0300 FG

Observacions i pronòstics meteorològics de més de 4000 aeroports (METAR i TAF).

Les estacions disponibles són els punts grocs i vermells al mapa.

Posi el ratolí al punt desitjat per veure el nom de l'estació.

Feu clic per veure les observacions i els pronòstics meteorològics.

Per canviar el mapa: feu clic els botons verds amb una creu de color negre per apropar; al botó verd amb un guió per allunyar la imatge; o en les fletxes verdes per a mapes adjacents.


METAR-TAF: